Time;durP1;ratioP1;P1;durP2;ratioP2;P2;SDS_P1;SDS_P2;PMS_P1;PMS_P2;Temp;Humidity;BMP_temperature;BMP_pressure;BME280_temperature;BME280_humidity;BME280_pressure;Samples;Min_cycle;Max_cycle;Signal;HPM_P1;HPM_P2
2022/01/11 00:02:05;;;;;;;1.40;1.30;;;;;;;2.94;78.99;94286.22;6168546;23;20206;-65
2022/01/11 00:04:31;;;;;;;1.70;1.50;;;;;;;2.97;79.07;94288.59;6168853;23;20194;-65
2022/01/11 00:06:58;;;;;;;1.83;1.40;;;;;;;2.98;78.42;94285.84;6162788;23;20304;-65
2022/01/11 00:09:33;;;;;;;1.63;1.53;;;;;;;2.91;78.72;94292.47;6187984;23;20238;-65
2022/01/11 00:11:59;;;;;;;1.60;1.50;;;;;;;2.92;78.79;94298.50;6189238;23;20170;-65
2022/01/11 00:14:25;;;;;;;1.83;1.63;;;;;;;2.99;78.16;94299.66;6164495;23;20216;-65
2022/01/11 00:16:50;;;;;;;2.00;1.80;;;;;;;2.98;77.47;94298.84;6164144;23;20249;-69
2022/01/11 00:19:16;;;;;;;2.63;2.40;;;;;;;2.87;78.31;94301.47;6164482;23;20198;-65
2022/01/11 00:21:47;;;;;;;4.63;3.33;;;;;;;3.13;77.21;94307.16;6162636;23;20211;-65
2022/01/11 00:24:30;;;;;;;4.13;2.53;;;;;;;2.83;76.50;94305.25;6163462;23;20178;-66
2022/01/11 00:27:00;;;;;;;2.90;2.60;;;;;;;2.86;76.49;94310.19;6162575;23;20309;-65
2022/01/11 00:29:26;;;;;;;3.10;2.57;;;;;;;2.81;77.32;94309.75;6164261;23;20205;-68
2022/01/11 00:31:53;;;;;;;2.80;2.43;;;;;;;2.74;78.29;94309.41;6187458;23;20202;-67
2022/01/11 00:34:20;;;;;;;3.20;2.50;;;;;;;2.82;78.97;94308.78;6165035;23;20199;-65
2022/01/11 00:36:46;;;;;;;3.27;2.93;;;;;;;2.95;78.61;94317.25;6165441;23;20242;-65
2022/01/11 00:39:13;;;;;;;4.00;2.53;;;;;;;2.87;77.21;94314.44;6165521;23;20175;-65
2022/01/11 00:41:40;;;;;;;2.93;2.50;;;;;;;3.04;76.44;94316.50;6190101;23;20210;-68
2022/01/11 00:44:06;;;;;;;4.07;2.47;;;;;;;2.92;78.18;94320.09;6189892;23;20222;-65
2022/01/11 00:46:33;;;;;;;3.00;2.30;;;;;;;2.83;79.08;94319.06;6165482;23;20203;-65
2022/01/11 00:48:58;;;;;;;2.17;1.97;;;;;;;2.93;78.15;94315.72;6165067;23;20191;-65
2022/01/11 00:51:24;;;;;;;2.23;2.03;;;;;;;3.08;78.07;94336.09;6166276;23;20182;-65
2022/01/11 00:53:49;;;;;;;2.53;1.80;;;;;;;3.10;78.37;94333.38;6165890;23;20264;-66
2022/01/11 00:56:15;;;;;;;2.40;1.73;;;;;;;2.97;78.27;94328.34;6166321;23;20207;-64
2022/01/11 00:58:41;;;;;;;2.07;1.80;;;;;;;2.87;78.69;94330.03;6165157;23;20202;-64
2022/01/11 01:01:07;;;;;;;1.90;1.70;;;;;;;2.96;78.55;94346.66;6165921;23;20194;-64
2022/01/11 01:03:33;;;;;;;1.83;1.70;;;;;;;2.99;79.12;94347.22;6190304;23;20183;-64
2022/01/11 01:05:59;;;;;;;2.20;1.80;;;;;;;2.98;78.79;94344.75;6165517;23;20190;-65
2022/01/11 01:08:25;;;;;;;2.00;1.80;;;;;;;3.00;78.02;94346.28;6190156;23;20237;-65
2022/01/11 01:10:51;;;;;;;2.33;1.77;;;;;;;3.01;78.19;94342.72;6164405;23;20219;-65
2022/01/11 01:13:22;;;;;;;2.23;1.70;;;;;;;2.93;77.58;94349.50;6164695;23;20221;-65
2022/01/11 01:15:50;;;;;;;2.53;1.97;;;;;;;2.93;78.16;94360.69;6164435;23;20202;-66
2022/01/11 01:18:21;;;;;;;2.00;1.67;;;;;;;2.97;78.32;94356.94;6164690;23;20194;-65
2022/01/11 01:20:47;;;;;;;1.93;1.70;;;;;;;3.12;77.88;94357.47;6163614;23;20199;-65
2022/01/11 01:23:13;;;;;;;1.80;1.67;;;;;;;3.02;77.83;94344.41;6164554;23;20203;-64
2022/01/11 01:25:41;;;;;;;2.37;1.80;;;;;;;3.02;78.09;94369.53;6189532;23;20202;-65
2022/01/11 01:28:06;;;;;;;2.57;1.70;;;;;;;3.06;78.08;94361.38;6165546;23;20202;-67
2022/01/11 01:30:32;;;;;;;1.60;1.50;;;;;;;3.02;78.23;94366.91;6188539;23;20179;-67
2022/01/11 01:32:58;;;;;;;1.73;1.63;;;;;;;2.93;78.25;94378.06;6165746;23;20179;-66
2022/01/11 01:35:28;;;;;;;1.93;1.57;;;;;;;2.86;78.44;94362.97;6166206;23;20207;-65
2022/01/11 01:37:53;;;;;;;2.10;1.87;;;;;;;2.88;77.66;94373.22;6165941;23;20246;-66
2022/01/11 01:40:19;;;;;;;2.00;1.70;;;;;;;2.88;77.54;94368.84;6188586;23;20222;-67
2022/01/11 01:42:47;;;;;;;1.87;1.70;;;;;;;2.96;76.95;94368.25;6190405;23;20257;-63
2022/01/11 01:45:13;;;;;;;2.03;1.80;;;;;;;2.86;76.39;94372.50;6190874;23;20179;-64
2022/01/11 01:47:39;;;;;;;1.90;1.50;;;;;;;2.91;76.56;94372.16;6166519;23;20194;-65
2022/01/11 01:50:06;;;;;;;2.00;1.50;;;;;;;2.69;75.37;94373.03;6164066;23;20222;-67
2022/01/11 01:52:32;;;;;;;2.20;1.60;;;;;;;2.75;73.94;94375.94;6189919;23;20195;-65
2022/01/11 01:54:58;;;;;;;1.87;1.30;;;;;;;2.60;74.40;94375.38;6165772;23;20273;-66
2022/01/11 01:57:24;;;;;;;1.20;1.10;;;;;;;2.62;74.41;94386.47;6164619;23;20182;-66
2022/01/11 01:59:50;;;;;;;1.43;1.20;;;;;;;2.61;75.69;94382.22;6165427;23;20182;-65
2022/01/11 02:02:16;;;;;;;1.07;0.97;;;;;;;2.62;75.85;94383.88;6165150;23;20203;-65
2022/01/11 02:04:42;;;;;;;2.50;1.27;;;;;;;2.61;75.72;94387.41;6190077;23;20191;-65
2022/01/11 02:07:08;;;;;;;1.17;0.97;;;;;;;2.55;74.55;94392.25;6163698;23;20206;-65
2022/01/11 02:09:35;;;;;;;0.90;0.80;;;;;;;2.52;74.64;94389.91;6164723;23;20233;-66
2022/01/11 02:12:01;;;;;;;0.90;0.80;;;;;;;2.43;74.95;94400.06;6164399;23;20183;-67
2022/01/11 02:14:26;;;;;;;1.07;0.90;;;;;;;2.64;74.36;94394.13;6164758;23;20207;-66
2022/01/11 02:16:53;;;;;;;0.77;0.67;;;;;;;2.64;74.06;94384.56;6189188;23;20281;-67
2022/01/11 02:19:19;;;;;;;1.10;0.70;;;;;;;2.47;73.75;94395.44;6166108;23;20199;-67
2022/01/11 02:21:44;;;;;;;0.90;0.80;;;;;;;2.26;74.67;94399.69;6165163;23;20212;-66
2022/01/11 02:24:10;;;;;;;0.70;0.63;;;;;;;2.35;74.80;94404.16;6189473;23;20201;-66
2022/01/11 02:26:35;;;;;;;0.80;0.80;;;;;;;2.35;73.37;94409.34;6189304;23;20229;-71
2022/01/11 02:29:01;;;;;;;0.70;0.60;;;;;;;2.45;73.42;94409.47;6165289;23;20206;-66
2022/01/11 02:31:27;;;;;;;1.27;1.00;;;;;;;2.29;73.29;94415.00;6165871;23;20198;-65
2022/01/11 02:33:57;;;;;;;0.70;0.70;;;;;;;2.38;74.24;94409.97;6164645;23;20203;-68
2022/01/11 02:36:31;;;;;;;1.30;1.07;;;;;;;2.48;74.29;94399.69;6165367;23;20170;-70
2022/01/11 02:38:58;;;;;;;1.10;0.97;;;;;;;2.64;73.61;94409.72;6165397;23;20206;-66
2022/01/11 02:41:27;;;;;;;0.80;0.80;;;;;;;2.52;74.54;94411.50;6164715;23;20194;-67
2022/01/11 02:43:54;;;;;;;1.43;1.00;;;;;;;2.40;74.92;94415.00;6164973;23;20234;-69
2022/01/11 02:46:21;;;;;;;1.00;0.90;;;;;;;2.20;75.53;94412.19;6163737;23;20250;-69
2022/01/11 02:48:52;;;;;;;1.53;1.20;;;;;;;2.21;75.42;94413.00;6164191;23;20260;-67
2022/01/11 02:51:17;;;;;;;1.13;1.03;;;;;;;2.23;75.84;94415.47;6189445;23;20175;-68
2022/01/11 02:53:45;;;;;;;1.37;1.27;;;;;;;2.13;76.05;94425.72;6165885;23;20202;-69
2022/01/11 02:56:12;;;;;;;1.00;0.90;;;;;;;2.15;76.11;94423.84;6163831;23;20206;-66
2022/01/11 02:58:38;;;;;;;1.00;0.80;;;;;;;2.19;73.99;94420.91;6189128;23;20261;-67
2022/01/11 03:01:04;;;;;;;0.80;0.80;;;;;;;2.13;74.09;94429.13;6188592;23;20277;-66
2022/01/11 03:03:30;;;;;;;1.00;0.90;;;;;;;2.27;75.18;94432.44;6163273;23;20198;-66
2022/01/11 03:05:58;;;;;;;0.77;0.77;;;;;;;2.07;74.57;94421.81;6165329;23;20183;-65
2022/01/11 03:08:26;;;;;;;0.93;0.80;;;;;;;2.17;75.79;94427.16;6189134;23;20214;-65
2022/01/11 03:10:53;;;;;;;0.70;0.70;;;;;;;2.40;75.45;94428.00;6194847;23;20224;-65
2022/01/11 03:13:19;;;;;;;0.90;0.90;;;;;;;2.34;74.69;94428.47;6169048;23;20190;-67
2022/01/11 03:15:46;;;;;;;0.60;0.60;;;;;;;2.43;72.52;94431.19;6194356;23;20236;-66
2022/01/11 03:18:13;;;;;;;0.70;0.70;;;;;;;2.28;72.06;94434.13;6168284;23;20186;-68
2022/01/11 03:20:40;;;;;;;0.60;0.60;;;;;;;2.30;72.45;94437.41;6194156;23;20202;-65
2022/01/11 03:23:07;;;;;;;0.97;0.90;;;;;;;2.26;71.20;94441.19;6194231;23;20201;-65
2022/01/11 03:25:33;;;;;;;1.20;1.10;;;;;;;2.31;71.68;94437.31;6192399;23;20205;-65
2022/01/11 03:27:58;;;;;;;1.57;1.27;;;;;;;2.22;71.75;94440.59;6169350;23;20202;-67
2022/01/11 03:30:24;;;;;;;0.73;0.70;;;;;;;2.21;71.72;94441.53;6168579;23;20237;-67
2022/01/11 03:32:49;;;;;;;1.00;0.90;;;;;;;2.06;71.31;94445.25;6192433;23;20174;-65
2022/01/11 03:35:16;;;;;;;0.80;0.80;;;;;;;2.04;71.71;94436.78;6191139;23;20221;-65
2022/01/11 03:37:43;;;;;;;0.70;0.70;;;;;;;1.91;72.03;94445.47;6194921;23;20198;-66
2022/01/11 03:40:13;;;;;;;0.70;0.70;;;;;;;1.86;72.59;94447.56;6192790;23;20301;-66
2022/01/11 03:42:39;;;;;;;0.70;0.70;;;;;;;1.76;72.90;94444.84;6166923;23;20206;-66
2022/01/11 03:45:07;;;;;;;0.70;0.70;;;;;;;1.88;72.32;94439.69;6169353;23;20194;-69
2022/01/11 03:47:33;;;;;;;0.70;0.70;;;;;;;1.88;71.80;94450.06;6169391;23;20201;-65
2022/01/11 03:49:58;;;;;;;0.70;0.70;;;;;;;1.81;72.68;94441.06;6168667;23;20210;-66
2022/01/11 03:52:25;;;;;;;1.00;0.70;;;;;;;1.90;72.73;94458.56;6193922;23;20831;-69
2022/01/11 03:57:22;;;;;;;2.53;0.80;;;;;;;1.97;72.60;94457.16;6194124;23;20244;-69
2022/01/11 03:59:48;;;;;;;0.60;0.60;;;;;;;2.03;71.31;94467.06;6194304;23;20182;-66
2022/01/11 04:02:13;;;;;;;1.90;0.80;;;;;;;1.95;72.03;94467.66;6168224;23;20217;-66
2022/01/11 04:04:39;;;;;;;0.77;0.73;;;;;;;1.99;71.50;94463.06;6168234;23;20205;-66
2022/01/11 04:07:05;;;;;;;1.33;0.80;;;;;;;1.76;71.74;94459.53;6167866;23;20217;-69
2022/01/11 04:09:31;;;;;;;0.77;0.70;;;;;;;1.71;71.81;94466.84;6193454;23;20174;-66
2022/01/11 04:11:57;;;;;;;0.80;0.80;;;;;;;1.66;72.40;94462.00;6170270;23;20248;-65
2022/01/11 04:14:25;;;;;;;2.17;0.80;;;;;;;1.66;72.75;94477.56;6169928;23;20224;-66
2022/01/11 04:16:52;;;;;;;0.67;0.67;;;;;;;1.67;72.81;94480.97;6195187;23;20237;-65
2022/01/11 04:19:19;;;;;;;0.80;0.80;;;;;;;1.85;72.08;94484.00;6169673;23;20200;-66
2022/01/11 04:21:45;;;;;;;1.07;0.97;;;;;;;1.84;72.39;94493.50;6170911;23;20204;-67
2022/01/11 04:24:12;;;;;;;0.93;0.80;;;;;;;1.79;71.56;94492.19;6196776;23;20173;-65
2022/01/11 04:26:38;;;;;;;0.80;0.80;;;;;;;1.87;72.03;94492.47;6169893;23;20208;-65
2022/01/11 04:29:04;;;;;;;0.80;0.80;;;;;;;1.85;72.11;94505.56;6194378;23;20296;-66
2022/01/11 04:31:30;;;;;;;0.90;0.80;;;;;;;1.81;73.40;94498.09;6170093;23;20198;-65
2022/01/11 04:33:55;;;;;;;0.60;0.60;;;;;;;1.86;72.93;94514.16;6195647;23;20258;-65
2022/01/11 04:36:21;;;;;;;1.00;0.90;;;;;;;1.81;72.51;94509.28;6196240;23;20177;-69
2022/01/11 04:38:47;;;;;;;1.00;0.90;;;;;;;1.82;72.62;94518.75;6196758;23;20198;-69
2022/01/11 04:41:13;;;;;;;1.27;1.17;;;;;;;1.64;72.68;94518.28;6195875;23;20194;-68
2022/01/11 04:43:38;;;;;;;0.93;0.93;;;;;;;1.69;72.90;94521.38;6169139;23;20206;-69
2022/01/11 04:46:04;;;;;;;0.80;0.80;;;;;;;1.80;69.72;94522.38;6193928;23;20309;-68
2022/01/11 04:48:32;;;;;;;0.93;0.83;;;;;;;1.86;69.73;94514.16;6167696;23;20257;-65
2022/01/11 04:51:00;;;;;;;1.03;0.90;;;;;;;1.88;70.32;94530.44;6194506;23;20231;-67
2022/01/11 04:53:26;;;;;;;0.80;0.80;;;;;;;1.84;68.28;94526.41;6192844;23;20229;-64
2022/01/11 04:55:51;;;;;;;1.67;0.80;;;;;;;1.79;69.58;94541.44;6196752;23;20194;-65
2022/01/11 04:58:18;;;;;;;0.90;0.83;;;;;;;1.86;69.86;94538.31;6170412;23;20248;-65
2022/01/11 05:00:44;;;;;;;1.10;1.00;;;;;;;1.89;68.91;94540.69;6196548;23;20201;-65
2022/01/11 05:03:10;;;;;;;1.60;0.90;;;;;;;1.84;68.54;94553.13;6170213;23;20182;-64
2022/01/11 05:05:35;;;;;;;0.93;0.93;;;;;;;1.64;69.36;94549.41;6169390;23;20194;-65
2022/01/11 05:08:02;;;;;;;1.07;0.87;;;;;;;1.66;69.26;94555.31;6195841;23;20210;-66
2022/01/11 05:10:28;;;;;;;1.37;1.00;;;;;;;1.81;69.85;94553.38;6169625;23;20217;-64
2022/01/11 05:12:53;;;;;;;0.90;0.80;;;;;;;1.56;67.75;94556.88;6194514;23;20198;-63
2022/01/11 05:15:20;;;;;;;0.90;0.90;;;;;;;1.50;69.26;94552.16;6170998;23;20233;-64
2022/01/11 05:17:46;;;;;;;1.10;1.00;;;;;;;1.52;69.64;94560.63;6195993;23;20256;-64
2022/01/11 05:20:13;;;;;;;0.73;0.73;;;;;;;1.44;68.50;94560.34;6194581;23;20210;-63
2022/01/11 05:22:39;;;;;;;0.90;0.90;;;;;;;1.53;70.11;94570.06;6168194;23;20210;-69
2022/01/11 05:25:06;;;;;;;1.43;1.10;;;;;;;1.62;69.00;94556.44;6194707;23;20201;-64
2022/01/11 05:27:31;;;;;;;0.87;0.80;;;;;;;1.64;68.74;94574.50;6169325;23;20193;-64
2022/01/11 05:29:57;;;;;;;1.47;0.90;;;;;;;1.62;68.58;94584.94;6170137;23;20182;-65
2022/01/11 05:32:23;;;;;;;1.47;1.33;;;;;;;1.65;67.73;94576.97;6169886;23;20194;-64
2022/01/11 05:34:48;;;;;;;3.93;2.03;;;;;;;1.49;68.54;94573.78;6169451;23;20198;-64
2022/01/11 05:37:14;;;;;;;2.87;1.37;;;;;;;1.73;67.25;94573.81;6194440;23;20198;-64
2022/01/11 05:39:39;;;;;;;2.70;0.83;;;;;;;1.64;67.86;94579.66;6168367;23;20186;-63
2022/01/11 05:42:09;;;;;;;1.10;1.00;;;;;;;1.62;67.66;94577.19;6194976;23;20265;-66
2022/01/11 05:44:36;;;;;;;1.03;0.90;;;;;;;1.55;67.50;94581.13;6194056;23;20202;-65
2022/01/11 05:47:03;;;;;;;1.00;0.90;;;;;;;1.67;66.58;94589.81;6193066;23;20208;-68
2022/01/11 05:49:29;;;;;;;1.00;0.90;;;;;;;1.53;66.28;94591.63;6169555;23;20275;-64
2022/01/11 05:51:55;;;;;;;2.20;1.50;;;;;;;1.50;67.01;94598.78;6168710;23;20532;-64
2022/01/11 05:54:21;;;;;;;3.37;1.50;;;;;;;1.56;67.89;94590.56;6166320;23;20241;-64
2022/01/11 05:56:46;;;;;;;2.67;2.17;;;;;;;1.47;66.85;94597.25;6167162;23;20207;-63
2022/01/11 05:59:12;;;;;;;2.43;1.33;;;;;;;1.43;67.85;94594.97;6166683;23;20252;-63
2022/01/11 06:01:38;;;;;;;1.67;1.50;;;;;;;1.43;67.89;94582.00;6166755;23;20198;-64
2022/01/11 06:04:03;;;;;;;1.20;1.10;;;;;;;1.52;67.26;94595.16;6167205;23;20225;-64
2022/01/11 06:06:29;;;;;;;2.03;1.40;;;;;;;1.52;66.74;94597.75;6193457;23;20190;-64
2022/01/11 06:08:54;;;;;;;1.63;1.50;;;;;;;1.57;66.72;94607.75;6170324;23;20248;-63
2022/01/11 06:11:20;;;;;;;4.17;1.97;;;;;;;1.51;67.18;94614.22;6194704;23;20206;-64
2022/01/11 06:13:46;;;;;;;1.83;1.53;;;;;;;1.46;67.75;94618.88;6168874;23;20218;-63
2022/01/11 06:16:12;;;;;;;1.60;1.50;;;;;;;1.47;67.69;94625.75;6168534;23;20205;-66
2022/01/11 06:18:38;;;;;;;1.87;1.67;;;;;;;1.48;68.47;94626.56;6194900;23;20174;-66
2022/01/11 06:21:04;;;;;;;1.80;1.60;;;;;;;1.44;68.27;94631.09;6194803;23;20194;-65
2022/01/11 06:23:29;;;;;;;2.33;1.87;;;;;;;1.52;68.53;94630.56;6194312;23;20194;-63
2022/01/11 06:25:55;;;;;;;2.17;1.30;;;;;;;1.55;66.17;94635.53;6169064;23;20213;-62
2022/01/11 06:28:20;;;;;;;2.70;1.83;;;;;;;1.66;67.44;94640.84;6167971;23;20205;-65
2022/01/11 06:30:47;;;;;;;2.50;1.80;;;;;;;1.66;68.03;94646.00;6194004;23;20198;-66
2022/01/11 06:33:13;;;;;;;1.87;1.30;;;;;;;1.66;65.80;94640.00;6193620;23;20232;-63
2022/01/11 06:35:39;;;;;;;2.03;1.60;;;;;;;1.55;67.09;94640.72;6166856;23;20269;-64
2022/01/11 06:38:04;;;;;;;3.17;1.80;;;;;;;1.56;67.23;94649.34;6194034;23;20201;-63
2022/01/11 06:40:30;;;;;;;3.03;1.70;;;;;;;1.53;66.61;94647.81;6168147;23;20210;-64
2022/01/11 06:42:55;;;;;;;3.77;2.10;;;;;;;1.53;67.23;94646.03;6193926;23;20205;-65
2022/01/11 06:45:22;;;;;;;2.83;1.53;;;;;;;1.60;67.45;94661.16;6169002;23;20199;-63
2022/01/11 06:47:48;;;;;;;2.53;1.63;;;;;;;1.55;67.56;94656.28;6167469;23;20228;-66
2022/01/11 06:50:14;;;;;;;2.63;1.80;;;;;;;1.55;66.55;94658.88;6167075;23;20206;-65
2022/01/11 06:52:40;;;;;;;2.07;1.20;;;;;;;1.61;66.67;94661.06;6167357;23;20217;-63
2022/01/11 06:55:07;;;;;;;1.87;1.17;;;;;;;1.55;66.79;94653.69;6166901;23;20198;-63
2022/01/11 06:57:33;;;;;;;3.23;1.37;;;;;;;1.60;66.84;94663.75;6168410;23;20186;-63
2022/01/11 06:59:59;;;;;;;2.60;2.10;;;;;;;1.62;66.51;94662.69;6168837;23;20190;-63
2022/01/11 07:02:24;;;;;;;2.00;1.60;;;;;;;1.62;66.27;94662.69;6167840;23;20229;-64
2022/01/11 07:04:50;;;;;;;1.63;1.30;;;;;;;1.63;66.40;94663.53;6168259;23;20358;-63
2022/01/11 07:07:16;;;;;;;1.47;1.37;;;;;;;1.60;66.18;94677.53;6166137;23;20205;-63
2022/01/11 07:09:41;;;;;;;2.00;1.67;;;;;;;1.67;66.45;94677.94;6192523;23;20206;-64
2022/01/11 07:12:07;;;;;;;1.50;1.40;;;;;;;1.76;66.01;94682.47;6167330;23;20213;-65
2022/01/11 07:14:33;;;;;;;1.70;1.60;;;;;;;1.75;65.22;94691.19;6167690;23;20224;-68
2022/01/11 07:16:58;;;;;;;2.77;2.00;;;;;;;1.69;64.94;94691.63;6168602;23;20206;-64
2022/01/11 07:19:24;;;;;;;2.40;1.50;;;;;;;1.48;63.28;94683.56;6193471;23;20244;-64
2022/01/11 07:21:49;;;;;;;2.20;1.50;;;;;;;1.57;64.84;94687.28;6193898;23;20205;-67
2022/01/11 07:24:16;;;;;;;3.00;2.30;;;;;;;1.63;64.68;94702.41;6192265;23;20182;-67
2022/01/11 07:26:42;;;;;;;2.43;1.33;;;;;;;1.68;65.20;94714.09;6168002;23;20194;-61
2022/01/11 07:29:09;;;;;;;1.67;1.33;;;;;;;1.82;65.32;94699.34;6167212;23;20253;-65
2022/01/11 07:31:40;;;;;;;1.10;1.00;;;;;;;1.75;62.45;94717.94;6192904;23;20248;-63
2022/01/11 07:34:06;;;;;;;1.60;1.20;;;;;;;1.74;63.68;94711.09;6167861;23;20258;-64
2022/01/11 07:36:32;;;;;;;1.93;1.37;;;;;;;1.50;63.06;94713.63;6167485;23;20233;-64
2022/01/11 07:38:58;;;;;;;2.10;1.33;;;;;;;1.55;62.56;94723.66;6194086;23;20221;-65
2022/01/11 07:41:24;;;;;;;1.57;1.47;;;;;;;1.62;63.37;94717.13;6166969;23;20202;-64
2022/01/11 07:43:49;;;;;;;2.63;1.50;;;;;;;1.62;63.54;94729.25;6167453;23;20213;-63
2022/01/11 07:46:15;;;;;;;1.63;1.20;;;;;;;1.57;65.53;94731.34;6166915;23;20198;-64
2022/01/11 07:48:41;;;;;;;2.00;1.80;;;;;;;1.58;65.24;94728.66;6167166;23;20186;-66
2022/01/11 07:51:07;;;;;;;1.73;1.40;;;;;;;1.69;65.23;94728.75;6167889;23;20212;-64
2022/01/11 07:53:32;;;;;;;1.43;1.33;;;;;;;1.69;65.28;94722.72;6169263;23;20194;-63
2022/01/11 07:55:58;;;;;;;1.90;1.63;;;;;;;1.70;65.56;94722.59;6168645;23;20205;-65
2022/01/11 07:58:24;;;;;;;2.67;1.90;;;;;;;1.74;65.69;94731.03;6166958;23;20344;-64
2022/01/11 08:00:50;;;;;;;1.90;1.70;;;;;;;1.75;64.90;94738.69;6167192;23;20198;-65
2022/01/11 08:03:17;;;;;;;2.33;1.57;;;;;;;1.83;65.83;94747.69;6166854;23;20178;-64
2022/01/11 08:05:43;;;;;;;1.47;1.37;;;;;;;1.77;64.95;94749.78;6193077;23;20201;-62
2022/01/11 08:08:08;;;;;;;1.70;1.50;;;;;;;1.76;65.35;94749.88;6166751;23;20280;-64
2022/01/11 08:10:34;;;;;;;1.80;1.70;;;;;;;1.66;66.24;94751.47;6168125;23;20202;-63
2022/01/11 08:13:02;;;;;;;3.73;1.80;;;;;;;1.69;66.50;94754.66;6193620;23;20209;-63
2022/01/11 08:15:28;;;;;;;1.93;1.60;;;;;;;1.79;64.23;94762.63;6165920;23;20202;-63
2022/01/11 08:17:54;;;;;;;2.33;1.90;;;;;;;1.73;65.26;94758.69;6167711;23;20249;-64
2022/01/11 08:20:20;;;;;;;2.13;1.90;;;;;;;1.76;65.35;94770.59;6192504;23;20216;-64
2022/01/11 08:22:48;;;;;;;2.37;1.77;;;;;;;1.69;66.37;94772.81;6192926;23;20202;-64
2022/01/11 08:25:14;;;;;;;2.20;1.97;;;;;;;1.63;65.85;94765.44;6192852;23;20197;-64
2022/01/11 08:27:40;;;;;;;2.53;1.90;;;;;;;1.54;65.02;94773.81;6192854;23;20181;-65
2022/01/11 08:30:06;;;;;;;2.87;1.97;;;;;;;1.58;65.39;94782.22;6194337;23;20200;-64
2022/01/11 08:32:32;;;;;;;2.73;2.20;;;;;;;1.64;65.76;94777.47;6167837;23;20258;-64
2022/01/11 08:34:57;;;;;;;2.33;1.87;;;;;;;1.66;65.03;94779.97;6192835;23;20225;-65
2022/01/11 08:37:23;;;;;;;2.70;2.13;;;;;;;1.72;64.65;94779.53;6167985;23;20186;-64
2022/01/11 08:39:48;;;;;;;3.20;2.50;;;;;;;1.58;64.77;94782.22;6167810;23;20202;-67
2022/01/11 08:42:14;;;;;;;2.53;2.10;;;;;;;1.51;65.26;94795.59;6167821;23;20201;-70
2022/01/11 08:47:30;;;;;;;2.97;1.90;;;;;;;1.70;65.60;94794.34;6193528;23;20205;-65
2022/01/11 08:49:57;;;;;;;3.97;2.10;;;;;;;1.61;65.49;94807.94;6190878;23;20226;-65
2022/01/11 08:52:23;;;;;;;5.53;3.77;;;;;;;1.54;66.16;94820.47;6191339;23;20295;-67
2022/01/11 08:54:48;;;;;;;2.50;2.20;;;;;;;1.48;66.19;94813.94;6193471;23;20197;-64
2022/01/11 08:57:19;;;;;;;4.33;2.67;;;;;;;1.44;66.91;94827.19;6168566;23;20189;-64
2022/01/11 08:59:45;;;;;;;3.80;2.50;;;;;;;1.40;66.76;94817.97;6169765;23;20194;-65
2022/01/11 09:02:11;;;;;;;3.00;2.20;;;;;;;1.40;66.26;94821.38;6195944;23;20217;-65
2022/01/11 09:04:36;;;;;;;3.60;2.23;;;;;;;1.27;66.87;94826.53;6170352;23;20220;-66
2022/01/11 09:07:03;;;;;;;3.23;2.53;;;;;;;1.36;67.26;94834.63;6169353;23;20250;-66
2022/01/11 09:09:31;;;;;;;3.10;2.40;;;;;;;1.31;66.64;94832.38;6194523;23;20220;-64
2022/01/11 09:11:57;;;;;;;3.07;2.60;;;;;;;1.35;66.24;94833.00;6169971;23;20182;-66
2022/01/11 09:14:23;;;;;;;3.97;2.40;;;;;;;1.31;66.09;94824.59;6195243;23;20212;-65
2022/01/11 09:16:50;;;;;;;1.73;1.57;;;;;;;1.33;65.35;94820.13;6169431;23;20264;-63
2022/01/11 09:19:18;;;;;;;2.93;1.80;;;;;;;1.30;65.37;94825.50;6169046;23;20221;-64
2022/01/11 09:21:44;;;;;;;2.83;1.87;;;;;;;1.26;65.90;94832.66;6194243;23;20212;-66
2022/01/11 09:24:11;;;;;;;2.07;1.60;;;;;;;1.30;67.63;94848.81;6170482;23;20201;-65
2022/01/11 09:26:37;;;;;;;1.90;1.60;;;;;;;1.42;67.51;94839.44;6195191;23;20202;-65
2022/01/11 09:29:03;;;;;;;2.20;1.43;;;;;;;1.42;66.60;94842.03;6194795;23;20230;-66
2022/01/11 09:31:28;;;;;;;2.07;1.53;;;;;;;1.57;65.42;94840.16;6195021;23;20198;-67
2022/01/11 09:33:54;;;;;;;2.07;1.40;;;;;;;1.57;65.48;94842.75;6194055;23;20210;-64
2022/01/11 09:36:20;;;;;;;2.33;1.30;;;;;;;1.58;65.91;94840.09;6169900;23;20208;-65
2022/01/11 09:38:45;;;;;;;3.37;1.73;;;;;;;1.72;64.09;94833.97;6169969;23;20194;-65
2022/01/11 09:41:11;;;;;;;2.43;1.77;;;;;;;1.62;63.14;94841.53;6195249;23;20369;-66
2022/01/11 09:43:37;;;;;;;2.73;1.70;;;;;;;1.60;64.22;94843.38;6194775;23;20202;-66
2022/01/11 09:46:02;;;;;;;3.00;1.40;;;;;;;1.66;64.32;94843.00;6193839;23;20257;-65
2022/01/11 09:48:32;;;;;;;1.53;1.40;;;;;;;1.60;64.90;94843.38;6168950;23;20178;-66
2022/01/11 09:50:58;;;;;;;1.70;1.40;;;;;;;1.67;63.88;94849.00;6195685;23;20170;-66
2022/01/11 09:53:24;;;;;;;2.10;1.47;;;;;;;1.57;61.52;94843.59;6168395;23;20228;-65
2022/01/11 09:55:50;;;;;;;1.87;1.47;;;;;;;1.67;61.30;94847.22;6169689;23;20193;-65
2022/01/11 09:58:16;;;;;;;3.33;2.23;;;;;;;1.52;64.03;94850.84;6169462;23;20190;-65
2022/01/11 10:00:42;;;;;;;3.97;1.53;;;;;;;1.52;62.45;94856.88;6167916;23;20237;-65
2022/01/11 10:03:08;;;;;;;2.00;1.53;;;;;;;1.47;63.55;94852.91;6194732;23;20166;-67
2022/01/11 10:05:38;;;;;;;2.03;1.50;;;;;;;1.64;63.31;94854.41;6194448;23;20249;-65
2022/01/11 10:08:25;;;;;;;2.00;1.33;;;;;;;1.67;63.07;94862.78;6188412;23;20206;-67
2022/01/11 10:10:52;;;;;;;2.33;1.80;;;;;;;1.57;62.63;94847.94;6164030;23;20199;-66
2022/01/11 10:13:35;;;;;;;1.43;1.33;;;;;;;1.62;63.01;94849.31;6189344;23;20221;-65
2022/01/11 10:16:25;;;;;;;1.33;1.20;;;;;;;1.55;62.40;94848.03;6189097;23;20190;-64
2022/01/11 10:18:52;;;;;;;1.67;1.57;;;;;;;1.60;62.43;94851.16;6163649;23;20203;-65
2022/01/11 10:21:37;;;;;;;2.00;1.53;;;;;;;1.61;61.90;94852.00;6188816;23;20262;-64
2022/01/11 10:24:21;;;;;;;1.90;1.70;;;;;;;1.44;62.83;94853.91;6164024;23;20199;-64
2022/01/11 10:26:47;;;;;;;2.43;1.47;;;;;;;1.52;61.80;94861.19;6187537;23;20202;-65
2022/01/11 10:29:42;;;;;;;1.43;1.30;;;;;;;1.42;62.75;94870.53;6187770;23;20198;-65
2022/01/11 10:32:18;;;;;;;1.63;1.53;;;;;;;1.50;62.46;94869.09;6188433;23;20206;-63
2022/01/11 10:34:48;;;;;;;1.87;1.60;;;;;;;1.56;62.40;94869.63;6187964;23;20229;-63
2022/01/11 10:37:16;;;;;;;1.57;1.40;;;;;;;1.35;60.47;94874.44;6164414;23;20198;-63
2022/01/11 10:39:44;;;;;;;1.37;1.23;;;;;;;1.32;60.84;94865.94;6164703;23;20206;-65
2022/01/11 10:42:28;;;;;;;1.67;1.47;;;;;;;1.30;62.22;94869.53;6164325;23;20194;-63
2022/01/11 10:44:55;;;;;;;2.77;1.97;;;;;;;1.30;62.02;94874.72;6163449;23;20210;-64
2022/01/11 10:47:24;;;;;;;1.57;1.47;;;;;;;1.39;61.53;94871.56;6165833;23;20225;-65
2022/01/11 10:49:55;;;;;;;6.53;3.23;;;;;;;1.39;60.91;94868.09;6164829;23;20206;-65
2022/01/11 10:52:27;;;;;;;4.47;2.30;;;;;;;1.27;61.09;94870.56;6188502;23;20212;-65
2022/01/11 10:54:52;;;;;;;3.43;2.60;;;;;;;1.12;61.95;94879.31;6188399;23;20206;-64
2022/01/11 10:57:25;;;;;;;2.70;2.33;;;;;;;1.15;62.67;94873.97;6188601;23;20179;-64
2022/01/11 11:00:20;;;;;;;2.07;1.87;;;;;;;1.15;61.30;94876.56;6164387;23;20250;-65
2022/01/11 11:02:50;;;;;;;2.30;2.10;;;;;;;1.24;60.38;94873.38;6161669;23;20226;-65
2022/01/11 11:05:21;;;;;;;2.30;1.60;;;;;;;1.04;60.43;94872.06;6165388;23;20206;-65
2022/01/11 11:07:56;;;;;;;1.70;1.60;;;;;;;1.18;61.55;94878.13;6188637;23;20238;-63
2022/01/11 11:10:43;;;;;;;2.23;2.00;;;;;;;1.26;60.04;94876.69;6164154;23;20198;-64
2022/01/11 11:13:16;;;;;;;2.43;2.07;;;;;;;1.06;59.77;94866.78;6162492;23;20191;-63
2022/01/11 11:15:42;;;;;;;3.47;2.33;;;;;;;1.21;59.74;94870.16;6164863;23;20217;-63
2022/01/11 11:18:22;;;;;;;2.73;2.47;;;;;;;1.31;60.19;94866.03;6188235;23;20186;-63
2022/01/11 11:20:47;;;;;;;2.40;2.20;;;;;;;1.36;60.22;94876.09;6163043;23;20194;-65
2022/01/11 11:23:15;;;;;;;2.97;2.43;;;;;;;1.44;59.55;94874.66;6163780;23;20310;-64
2022/01/11 11:25:41;;;;;;;2.63;2.30;;;;;;;1.39;59.77;94868.09;6165434;23;20205;-65
2022/01/11 11:28:06;;;;;;;2.50;2.30;;;;;;;1.31;58.83;94873.81;6163463;23;20269;-66
2022/01/11 11:30:32;;;;;;;2.70;2.37;;;;;;;1.43;59.67;94882.53;6188208;23;20175;-68
2022/01/11 11:32:58;;;;;;;2.50;2.27;;;;;;;1.47;58.31;94871.03;6186911;23;20190;-66
2022/01/11 11:35:24;;;;;;;2.47;2.10;;;;;;;1.31;57.85;94871.22;6186498;23;20217;-64
2022/01/11 11:37:55;;;;;;;3.13;2.27;;;;;;;1.44;58.26;94877.25;6162940;23;20250;-64
2022/01/11 11:40:24;;;;;;;2.70;2.20;;;;;;;1.43;58.75;94872.19;6163971;23;20218;-64
2022/01/11 11:43:01;;;;;;;4.37;3.17;;;;;;;1.40;59.31;94886.16;6164812;23;20250;-65
2022/01/11 11:45:37;;;;;;;2.40;2.20;;;;;;;1.19;58.96;94880.59;6187941;23;20194;-63
2022/01/11 11:48:03;;;;;;;3.17;2.87;;;;;;;1.43;59.08;94898.09;6188770;23;20194;-65